Terminal Aerodrome Forecast
Issued by NWS Cleveland, OH

Home | Current Version | Previous Version | Graphics & Text | Print | Product List | Glossary On
Versions: 1 2 3 4 5 6 7 8 9 10 11 12 13 14 15 16 17 18 19 20
000
FTUS41 KCLE 150758 AAA
TAFCAK
TAF AMD
KCAK 150758Z 1508/1606 30005KT 6SM BR SCT007
      TEMPO 1508/1512 5SM BR BKN007
     FM151200 VRB03KT P6SM BKN250=

USA.gov is the U.S. government's official web portal to all federal, state and local government web resources and services.